createdAt,value
2018-09-30T00:02:26.907Z,7.2
2018-09-30T00:07:27.539Z,7.2
2018-09-30T00:12:28.578Z,7.1
2018-09-30T00:17:27.721Z,6.9
2018-09-30T00:22:27.012Z,6.7
2018-09-30T00:27:26.724Z,6.6
2018-09-30T00:32:27.152Z,6.6
2018-09-30T00:37:27.389Z,6.5
2018-09-30T00:42:26.816Z,6.5
2018-09-30T00:47:26.861Z,6.5
2018-09-30T00:52:27.274Z,6.5
2018-09-30T00:57:27.470Z,6.6
2018-09-30T01:02:27.562Z,6.5
2018-09-30T01:07:27.821Z,6.5
2018-09-30T01:12:27.016Z,6.4
2018-09-30T01:17:27.562Z,6.4
2018-09-30T01:22:27.285Z,6.3
2018-09-30T01:27:27.385Z,6.3
2018-09-30T01:32:27.264Z,6.3
2018-09-30T01:37:28.706Z,6.3
2018-09-30T01:42:26.947Z,6.3
2018-09-30T01:47:27.513Z,6.2
2018-09-30T01:52:27.117Z,6.1
2018-09-30T01:57:27.856Z,6.0
2018-09-30T02:02:26.864Z,6.0
2018-09-30T02:07:27.453Z,5.9
2018-09-30T02:12:27.260Z,5.8
2018-09-30T02:17:28.516Z,5.7
2018-09-30T02:22:27.382Z,5.6
2018-09-30T02:27:27.049Z,5.5
2018-09-30T02:32:27.828Z,5.5
2018-09-30T02:37:26.981Z,5.5
2018-09-30T02:42:28.201Z,5.4
2018-09-30T02:47:27.028Z,5.4
2018-09-30T02:52:26.526Z,5.4
2018-09-30T02:57:27.639Z,5.3
2018-09-30T03:02:27.725Z,5.3
2018-09-30T03:07:27.176Z,5.2
2018-09-30T03:12:27.229Z,5.2
2018-09-30T03:17:27.378Z,5.1
2018-09-30T03:22:27.018Z,5.0
2018-09-30T03:27:27.314Z,4.9
2018-09-30T03:32:26.704Z,5.0
2018-09-30T03:37:27.053Z,5.0
2018-09-30T03:42:27.465Z,4.9
2018-09-30T03:47:26.949Z,4.8
2018-09-30T03:52:26.334Z,4.9
2018-09-30T03:57:27.075Z,4.8
2018-09-30T04:02:28.056Z,4.8
2018-09-30T04:07:26.871Z,4.8
2018-09-30T04:12:27.798Z,4.8
2018-09-30T04:17:28.075Z,4.7
2018-09-30T04:22:27.483Z,4.8
2018-09-30T04:27:27.471Z,4.7
2018-09-30T04:32:27.308Z,4.7
2018-09-30T04:37:27.208Z,4.6
2018-09-30T04:42:27.403Z,4.6
2018-09-30T04:47:32.416Z,4.6
2018-09-30T04:52:28.546Z,4.5
2018-09-30T04:57:27.831Z,4.4
2018-09-30T05:02:27.692Z,4.4
2018-09-30T05:07:27.882Z,4.3
2018-09-30T05:12:27.977Z,4.2
2018-09-30T05:17:27.836Z,4.4
2018-09-30T05:22:27.973Z,4.4
2018-09-30T05:27:28.076Z,4.3
2018-09-30T05:32:27.397Z,4.4
2018-09-30T05:37:27.576Z,4.5
2018-09-30T05:42:28.209Z,4.4
2018-09-30T05:47:28.662Z,4.5
2018-09-30T05:52:27.665Z,4.7
2018-09-30T05:57:28.282Z,4.6
2018-09-30T06:02:28.440Z,5.0
2018-09-30T06:07:27.580Z,5.2
2018-09-30T06:12:27.892Z,5.6
2018-09-30T06:17:28.386Z,5.6
2018-09-30T06:22:27.549Z,5.9
2018-09-30T06:27:27.823Z,6.1
2018-09-30T06:32:28.340Z,6.7
2018-09-30T06:37:28.190Z,7.0
2018-09-30T06:42:28.046Z,6.9
2018-09-30T06:47:28.070Z,7.2
2018-09-30T06:52:28.400Z,7.4
2018-09-30T06:57:28.119Z,7.7
2018-09-30T07:02:27.971Z,8.0
2018-09-30T07:07:28.270Z,8.6
2018-09-30T07:12:28.592Z,8.6
2018-09-30T07:17:28.217Z,9.0
2018-09-30T07:22:28.154Z,9.3
2018-09-30T07:27:28.009Z,9.7
2018-09-30T07:32:28.384Z,10.0
2018-09-30T07:37:27.138Z,10.2
2018-09-30T07:42:27.552Z,10.6
2018-09-30T07:47:29.741Z,10.9
2018-09-30T07:52:27.898Z,11.2
2018-09-30T07:57:27.129Z,11.4
2018-09-30T08:02:28.585Z,12.1
2018-09-30T08:07:28.746Z,12.1
2018-09-30T08:12:27.892Z,12.5
2018-09-30T08:17:28.031Z,12.9
2018-09-30T08:22:28.058Z,13.3
2018-09-30T08:27:28.398Z,13.7
2018-09-30T08:32:27.427Z,14.1
2018-09-30T08:37:27.477Z,14.4
2018-09-30T08:42:27.968Z,15.2
2018-09-30T08:47:28.311Z,15.2
2018-09-30T08:52:27.670Z,15.6
2018-09-30T08:57:27.805Z,16.0
2018-09-30T09:02:28.177Z,16.3
2018-09-30T09:07:28.263Z,16.7
2018-09-30T09:12:28.105Z,17.1
2018-09-30T09:17:27.754Z,17.8
2018-09-30T09:22:28.456Z,17.8
2018-09-30T09:27:28.329Z,18.2
2018-09-30T09:32:27.957Z,18.9
2018-09-30T09:37:28.844Z,18.9
2018-09-30T09:42:28.078Z,19.4
2018-09-30T09:47:28.423Z,19.8
2018-09-30T09:52:28.144Z,20.2
2018-09-30T09:57:27.835Z,20.6
2018-09-30T10:02:29.130Z,20.9
2018-09-30T10:07:27.968Z,21.2
2018-09-30T10:12:28.201Z,21.5
2018-09-30T10:17:28.679Z,21.8
2018-09-30T10:22:27.499Z,22.2
2018-09-30T10:27:27.543Z,22.4
2018-09-30T10:32:28.195Z,22.6
2018-09-30T10:37:27.550Z,23.3
2018-09-30T10:42:27.911Z,23.5
2018-09-30T10:47:28.436Z,23.5
2018-09-30T10:52:27.595Z,23.5
2018-09-30T10:57:28.437Z,23.5
2018-09-30T11:02:28.034Z,24.0
2018-09-30T11:07:28.360Z,24.0
2018-09-30T11:12:28.173Z,24.1
2018-09-30T11:17:28.081Z,24.8
2018-09-30T11:22:27.967Z,24.7
2018-09-30T11:27:27.614Z,24.9
2018-09-30T11:32:28.361Z,25.2
2018-09-30T11:37:27.677Z,25.5
2018-09-30T11:42:28.893Z,25.8
2018-09-30T11:47:28.588Z,26.0
2018-09-30T11:52:27.700Z,26.1
2018-09-30T11:57:28.496Z,26.4
2018-09-30T12:02:28.038Z,26.3
2018-09-30T12:07:28.157Z,27.0
2018-09-30T12:12:27.903Z,27.0
2018-09-30T12:17:28.612Z,27.3
2018-09-30T12:22:27.535Z,27.9
2018-09-30T12:27:28.092Z,27.8
2018-09-30T12:32:27.939Z,28.1
2018-09-30T12:37:27.583Z,28.2
2018-09-30T12:42:27.549Z,28.1
2018-09-30T12:47:28.217Z,27.9
2018-09-30T12:52:28.196Z,28.5
2018-09-30T12:57:27.434Z,28.4
2018-09-30T13:02:28.409Z,29.0
2018-09-30T13:07:28.341Z,29.0
2018-09-30T13:12:27.828Z,29.6
2018-09-30T13:17:27.546Z,30.0
2018-09-30T13:22:28.376Z,30.8
2018-09-30T13:27:28.012Z,30.7
2018-09-30T13:32:28.644Z,30.9
2018-09-30T13:37:28.179Z,30.8
2018-09-30T13:42:28.520Z,30.4
2018-09-30T13:47:28.074Z,30.1
2018-09-30T13:52:28.066Z,30.5
2018-09-30T13:57:28.784Z,30.8
2018-09-30T14:02:27.359Z,31.3
2018-09-30T14:07:28.001Z,31.9
2018-09-30T14:12:28.106Z,31.8
2018-09-30T14:17:27.822Z,33.2
2018-09-30T14:22:28.459Z,34.5
2018-09-30T14:27:27.641Z,35.9
2018-09-30T14:32:27.504Z,36.3
2018-09-30T14:37:28.281Z,38.6
2018-09-30T14:42:28.248Z,37.3
2018-09-30T14:47:28.038Z,36.1
2018-09-30T14:52:27.301Z,37.6
2018-09-30T14:57:28.635Z,36.4
2018-09-30T15:02:27.409Z,37.7
2018-09-30T15:07:29.811Z,39.5
2018-09-30T15:12:28.118Z,40.6
2018-09-30T15:17:28.540Z,40.9
2018-09-30T15:22:27.283Z,41.2
2018-09-30T15:27:27.735Z,40.0
2018-09-30T15:32:28.634Z,37.1
2018-09-30T15:37:27.814Z,40.1
2018-09-30T15:42:28.339Z,40.1
2018-09-30T15:47:27.921Z,40.3
2018-09-30T15:52:27.411Z,40.5
2018-09-30T15:57:28.070Z,39.9
2018-09-30T16:02:28.569Z,40.1
2018-09-30T16:07:28.863Z,40.4
2018-09-30T16:12:28.420Z,40.5
2018-09-30T16:17:28.152Z,40.4
2018-09-30T16:22:27.302Z,39.8
2018-09-30T16:27:28.287Z,38.9
2018-09-30T16:32:27.901Z,35.8
2018-09-30T16:37:27.693Z,35.8
2018-09-30T16:42:27.579Z,34.1
2018-09-30T16:47:28.395Z,32.2
2018-09-30T16:52:28.388Z,30.8
2018-09-30T16:57:28.162Z,29.4
2018-09-30T17:02:28.908Z,28.0
2018-09-30T17:07:28.448Z,26.7
2018-09-30T17:12:27.430Z,25.6
2018-09-30T17:17:27.881Z,23.7
2018-09-30T17:22:28.472Z,23.7
2018-09-30T17:27:27.616Z,23.0
2018-09-30T17:32:28.127Z,22.4
2018-09-30T17:37:28.828Z,21.9
2018-09-30T17:42:28.138Z,21.4
2018-09-30T17:47:28.064Z,20.5
2018-09-30T17:52:28.469Z,20.5
2018-09-30T17:57:27.206Z,20.1
2018-09-30T18:02:27.304Z,19.8
2018-09-30T18:07:28.317Z,19.2
2018-09-30T18:12:27.577Z,18.8
2018-09-30T18:17:28.848Z,18.8
2018-09-30T18:22:27.140Z,18.4
2018-09-30T18:27:27.277Z,18.1
2018-09-30T18:32:27.547Z,18.0
2018-09-30T18:37:27.399Z,17.7
2018-09-30T18:42:27.715Z,17.5
2018-09-30T18:47:27.842Z,17.3
2018-09-30T18:52:26.873Z,17.0
2018-09-30T18:57:27.113Z,16.9
2018-09-30T19:02:29.222Z,16.4
2018-09-30T19:07:27.902Z,16.4
2018-09-30T19:12:28.194Z,16.4
2018-09-30T19:17:28.190Z,16.3
2018-09-30T19:22:28.307Z,16.2
2018-09-30T19:27:27.175Z,15.9
2018-09-30T19:32:28.033Z,15.7
2018-09-30T19:37:27.574Z,15.6
2018-09-30T19:42:27.508Z,15.5
2018-09-30T19:47:26.992Z,15.5
2018-09-30T19:52:27.926Z,15.5
2018-09-30T19:57:27.316Z,15.5
2018-09-30T20:02:27.505Z,15.3
2018-09-30T20:07:28.327Z,15.0
2018-09-30T20:12:27.492Z,14.9
2018-09-30T20:17:27.762Z,14.8
2018-09-30T20:22:27.517Z,14.8
2018-09-30T20:27:27.774Z,14.7
2018-09-30T20:32:27.194Z,14.7
2018-09-30T20:37:27.345Z,14.6
2018-09-30T20:42:27.213Z,14.5
2018-09-30T20:47:27.562Z,14.4
2018-09-30T20:52:27.087Z,14.2
2018-09-30T20:57:28.691Z,14.1
2018-09-30T21:02:28.289Z,14.0
2018-09-30T21:07:27.609Z,14.0
2018-09-30T21:12:28.594Z,13.8
2018-09-30T21:17:27.459Z,13.7
2018-09-30T21:22:28.195Z,13.8
2018-09-30T21:27:29.534Z,13.8
2018-09-30T21:32:27.386Z,13.8
2018-09-30T21:37:28.076Z,13.8
2018-09-30T21:42:27.996Z,13.8
2018-09-30T21:47:27.922Z,13.8
2018-09-30T21:52:28.397Z,13.7
2018-09-30T21:57:27.067Z,13.6
2018-09-30T22:02:27.312Z,13.6
2018-09-30T22:07:27.401Z,13.6
2018-09-30T22:12:27.352Z,13.6
2018-09-30T22:23:04.842Z,13.2
2018-09-30T22:28:02.873Z,13.2
2018-09-30T22:33:04.500Z,13.1
2018-09-30T22:38:02.844Z,12.9
2018-09-30T22:43:03.263Z,12.9
2018-09-30T22:48:03.642Z,12.9
2018-09-30T22:53:03.414Z,12.9
2018-09-30T22:58:03.308Z,12.9
2018-09-30T23:03:03.250Z,12.9
2018-09-30T23:08:04.193Z,12.9
2018-09-30T23:12:27.219Z,12.8
2018-09-30T23:17:27.803Z,12.7
2018-09-30T23:22:27.782Z,12.6
2018-09-30T23:27:27.746Z,12.7
2018-09-30T23:32:26.886Z,12.7
2018-09-30T23:37:27.317Z,12.7
2018-09-30T23:42:27.203Z,12.8
2018-09-30T23:47:27.335Z,12.8
2018-09-30T23:52:26.787Z,12.9
2018-09-30T23:57:27.499Z,13.0
